<?xml version="1.0" encoding="utf-8"?>
<gpx xmlns:xsi="http://www.w3.org/2001/XMLSchema-instance" xmlns:xsd="http://www.w3.org/2001/XMLSchema" version="1.1" creator="Shapelink.com" xmlns="http://www.topografix.com/GPX/1/1" xmlns:gpxtpx="http://www.garmin.com/xmlschemas/TrackPointExtension/v1">
  <metadata>
    <name>Övrigt 3.02 km, 2020-06-22</name>
    <desc></desc>
    <author><name>Marian Moron</name></author> 
    <time>2020-06-22T20:23:06Z</time>
  </metadata>
  <trk>
    <name>Övrigt 3.02 km, 2020-06-22</name>
    <trkseg>
      <trkpt lat="51.228903109788" lon="4.448696442484">
        <ele>0</ele>
        <time>2020-06-22T20:23:06Z</time>
      </trkpt>
      <trkpt lat="51.229024898795" lon="4.448575491667">
        <ele>0</ele>
        <time>2020-06-22T20:23:27Z</time>
      </trkpt>
      <trkpt lat="51.229183149067" lon="4.448795851818">
        <ele>0</ele>
        <time>2020-06-22T20:23:43Z</time>
      </trkpt>
      <trkpt lat="51.229376351862" lon="4.449112436181">
        <ele>0</ele>
        <time>2020-06-22T20:24:02Z</time>
      </trkpt>
      <trkpt lat="51.229420440656" lon="4.449243193821">
        <ele>0</ele>
        <time>2020-06-22T20:24:11Z</time>
      </trkpt>
      <trkpt lat="51.229426894719" lon="4.449280493276">
        <ele>0</ele>
        <time>2020-06-22T20:24:14Z</time>
      </trkpt>
      <trkpt lat="51.229540218007" lon="4.449647033763">
        <ele>3.6</ele>
        <time>2020-06-22T20:24:49Z</time>
      </trkpt>
      <trkpt lat="51.229581959869" lon="4.45032538093">
        <ele>7.4</ele>
        <time>2020-06-22T20:25:46Z</time>
      </trkpt>
      <trkpt lat="51.229677932624" lon="4.450518919001">
        <ele>6.8</ele>
        <time>2020-06-22T20:26:05Z</time>
      </trkpt>
      <trkpt lat="51.229713723337" lon="4.450630817366">
        <ele>6.4</ele>
        <time>2020-06-22T20:26:15Z</time>
      </trkpt>
      <trkpt lat="51.229763679461" lon="4.451162481283">
        <ele>5.4</ele>
        <time>2020-06-22T20:26:54Z</time>
      </trkpt>
      <trkpt lat="51.229770301162" lon="4.451195505969">
        <ele>5.4</ele>
        <time>2020-06-22T20:26:56Z</time>
      </trkpt>
      <trkpt lat="51.229932993841" lon="4.451859603906">
        <ele>2.8</ele>
        <time>2020-06-22T20:27:41Z</time>
      </trkpt>
      <trkpt lat="51.230065679318" lon="4.452541052376">
        <ele>3</ele>
        <time>2020-06-22T20:28:24Z</time>
      </trkpt>
      <trkpt lat="51.230169950154" lon="4.453242952682">
        <ele>0</ele>
        <time>2020-06-22T20:29:05Z</time>
      </trkpt>
      <trkpt lat="51.23029685212" lon="4.45393714164">
        <ele>0</ele>
        <time>2020-06-22T20:29:50Z</time>
      </trkpt>
      <trkpt lat="51.230291571523" lon="4.454634180444">
        <ele>0</ele>
        <time>2020-06-22T20:30:34Z</time>
      </trkpt>
      <trkpt lat="51.230216888794" lon="4.454995356515">
        <ele>4</ele>
        <time>2020-06-22T20:30:59Z</time>
      </trkpt>
      <trkpt lat="51.230593152285" lon="4.455383689942">
        <ele>2.8</ele>
        <time>2020-06-22T20:31:47Z</time>
      </trkpt>
      <trkpt lat="51.230792054772" lon="4.455500533628">
        <ele>0</ele>
        <time>2020-06-22T20:32:11Z</time>
      </trkpt>
      <trkpt lat="51.230913508503" lon="4.455667081981">
        <ele>1</ele>
        <time>2020-06-22T20:32:29Z</time>
      </trkpt>
      <trkpt lat="51.230998165693" lon="4.456041669092">
        <ele>0</ele>
        <time>2020-06-22T20:33:01Z</time>
      </trkpt>
      <trkpt lat="51.230941168773" lon="4.456174019293">
        <ele>0</ele>
        <time>2020-06-22T20:33:12Z</time>
      </trkpt>
      <trkpt lat="51.230501705756" lon="4.456387673924">
        <ele>3.8</ele>
        <time>2020-06-22T20:33:55Z</time>
      </trkpt>
      <trkpt lat="51.230319734707" lon="4.456433187641">
        <ele>3.8</ele>
        <time>2020-06-22T20:34:15Z</time>
      </trkpt>
      <trkpt lat="51.23028427927" lon="4.456449783803">
        <ele>3.6</ele>
        <time>2020-06-22T20:34:19Z</time>
      </trkpt>
      <trkpt lat="51.229844313339" lon="4.456561430711">
        <ele>0</ele>
        <time>2020-06-22T20:35:12Z</time>
      </trkpt>
      <trkpt lat="51.229797709975" lon="4.456946746654">
        <ele>6.8</ele>
        <time>2020-06-22T20:35:45Z</time>
      </trkpt>
      <trkpt lat="51.229869626677" lon="4.45765619067">
        <ele>1</ele>
        <time>2020-06-22T20:36:30Z</time>
      </trkpt>
      <trkpt lat="51.229871219238" lon="4.457797090409">
        <ele>1.8</ele>
        <time>2020-06-22T20:36:39Z</time>
      </trkpt>
      <trkpt lat="51.229729900404" lon="4.457981911304">
        <ele>5.8</ele>
        <time>2020-06-22T20:37:30Z</time>
      </trkpt>
      <trkpt lat="51.229569135562" lon="4.457948635161">
        <ele>13.6</ele>
        <time>2020-06-22T20:51:15Z</time>
      </trkpt>
      <trkpt lat="51.229354810379" lon="4.458014768352">
        <ele>13.6</ele>
        <time>2020-06-22T20:51:36Z</time>
      </trkpt>
      <trkpt lat="51.228916856104" lon="4.458172683348">
        <ele>15.4</ele>
        <time>2020-06-22T20:52:11Z</time>
      </trkpt>
      <trkpt lat="51.228633547884" lon="4.458304530635">
        <ele>13</ele>
        <time>2020-06-22T20:52:32Z</time>
      </trkpt>
      <trkpt lat="51.228614269514" lon="4.458442831985">
        <ele>11.6</ele>
        <time>2020-06-22T20:52:52Z</time>
      </trkpt>
      <trkpt lat="51.228559954802" lon="4.458911380195">
        <ele>7.8</ele>
        <time>2020-06-22T20:53:23Z</time>
      </trkpt>
      <trkpt lat="51.228487032272" lon="4.459258977588">
        <ele>5.4</ele>
        <time>2020-06-22T20:54:16Z</time>
      </trkpt>
      <trkpt lat="51.228464484961" lon="4.45937950931">
        <ele>5.2</ele>
        <time>2020-06-22T20:54:30Z</time>
      </trkpt>
      <trkpt lat="51.228395418105" lon="4.459561731816">
        <ele>5</ele>
        <time>2020-06-22T20:54:50Z</time>
      </trkpt>
      <trkpt lat="51.228281340446" lon="4.459984514852">
        <ele>5.2</ele>
        <time>2020-06-22T20:55:28Z</time>
      </trkpt>
      <trkpt lat="51.22831453277" lon="4.460251897462">
        <ele>6</ele>
        <time>2020-06-22T20:55:51Z</time>
      </trkpt>
      <trkpt lat="51.228237167833" lon="4.46037276446">
        <ele>6.4</ele>
        <time>2020-06-22T20:56:00Z</time>
      </trkpt>
      <trkpt lat="51.228212022133" lon="4.460431270122">
        <ele>6.2</ele>
        <time>2020-06-22T20:56:04Z</time>
      </trkpt>
      <trkpt lat="51.228245633552" lon="4.460499247331">
        <ele>5</ele>
        <time>2020-06-22T20:56:10Z</time>
      </trkpt>
      <trkpt lat="51.228372032604" lon="4.46061919232">
        <ele>0</ele>
        <time>2020-06-22T20:56:48Z</time>
      </trkpt>
      <trkpt lat="51.228630278943" lon="4.461006184643">
        <ele>2.4</ele>
        <time>2020-06-22T20:57:19Z</time>
      </trkpt>
      <trkpt lat="51.228989862453" lon="4.461203494569">
        <ele>14</ele>
        <time>2020-06-22T20:58:39Z</time>
      </trkpt>
      <trkpt lat="51.22913763535" lon="4.461238279454">
        <ele>20.4</ele>
        <time>2020-06-22T20:58:56Z</time>
      </trkpt>
      <trkpt lat="51.229318013838" lon="4.461109365832">
        <ele>18.8</ele>
        <time>2020-06-22T20:59:24Z</time>
      </trkpt>
      <trkpt lat="51.229495207204" lon="4.460907613499">
        <ele>9.4</ele>
        <time>2020-06-22T20:59:45Z</time>
      </trkpt>
      <trkpt lat="51.229586569914" lon="4.461023702814">
        <ele>4.4</ele>
        <time>2020-06-22T21:00:00Z</time>
      </trkpt>
      <trkpt lat="51.229806008056" lon="4.461288151759">
        <ele>0</ele>
        <time>2020-06-22T21:00:50Z</time>
      </trkpt>
      <trkpt lat="51.229821682209" lon="4.461331737639">
        <ele>0</ele>
        <time>2020-06-22T21:00:53Z</time>
      </trkpt>
      <trkpt lat="51.229868117935" lon="4.461553271256">
        <ele>0</ele>
        <time>2020-06-22T21:01:07Z</time>
      </trkpt>
      <trkpt lat="51.229925366312" lon="4.461805398808">
        <ele>0</ele>
        <time>2020-06-22T21:01:26Z</time>
      </trkpt>
      <trkpt lat="51.229998875575" lon="4.461923080684">
        <ele>0</ele>
        <time>2020-06-22T21:01:52Z</time>
      </trkpt>
      <trkpt lat="51.230008095665" lon="4.462121983171">
        <ele>0</ele>
        <time>2020-06-22T21:02:13Z</time>
      </trkpt>
      <trkpt lat="51.230172380905" lon="4.462733861871">
        <ele>1.4</ele>
        <time>2020-06-22T21:02:58Z</time>
      </trkpt>
      <trkpt lat="51.230199202985" lon="4.462905858459">
        <ele>12.2</ele>
        <time>2020-06-22T21:03:46Z</time>
      </trkpt>
      <trkpt lat="51.229937436248" lon="4.463060504514">
        <ele>0</ele>
        <time>2020-06-22T21:04:43Z</time>
      </trkpt>
      <trkpt lat="51.229912206729" lon="4.463096798141">
        <ele>0.6</ele>
        <time>2020-06-22T21:04:48Z</time>
      </trkpt>
      <trkpt lat="51.22988194807" lon="4.463084560567">
        <ele>0</ele>
        <time>2020-06-22T21:04:51Z</time>
      </trkpt>
      <trkpt lat="51.229626886853" lon="4.463079531427">
        <ele>0.4</ele>
        <time>2020-06-22T21:05:34Z</time>
      </trkpt>
      <trkpt lat="51.229493614643" lon="4.463093445381">
        <ele>1.8</ele>
        <time>2020-06-22T21:05:51Z</time>
      </trkpt>
      <trkpt lat="51.229406023788" lon="4.463095624675">
        <ele>0.6</ele>
        <time>2020-06-22T21:06:05Z</time>
      </trkpt>
      <trkpt lat="51.22914937001" lon="4.46311783671">
        <ele>3</ele>
        <time>2020-06-22T21:06:41Z</time>
      </trkpt>
      <trkpt lat="51.229113914573" lon="4.463301651777">
        <ele>4</ele>
        <time>2020-06-22T21:06:58Z</time>
      </trkpt>
      <trkpt lat="51.229025569347" lon="4.463430733037">
        <ele>9.2</ele>
        <time>2020-06-22T21:07:15Z</time>
      </trkpt>
      <trkpt lat="51.229011152479" lon="4.463587893662">
        <ele>6.2</ele>
        <time>2020-06-22T21:07:32Z</time>
      </trkpt>
      <trkpt lat="51.228720971101" lon="4.463531986389">
        <ele>0.4</ele>
        <time>2020-06-22T21:08:08Z</time>
      </trkpt>
      <trkpt lat="51.228689538976" lon="4.463540703565">
        <ele>0</ele>
        <time>2020-06-22T21:08:35Z</time>
      </trkpt>
      <trkpt lat="51.229070747788" lon="4.463608932231">
        <ele>1</ele>
        <time>2020-06-22T21:09:05Z</time>
      </trkpt>
      <trkpt lat="51.229089942339" lon="4.464026518489">
        <ele>0</ele>
        <time>2020-06-22T21:09:28Z</time>
      </trkpt>
      <trkpt lat="51.22904291988" lon="4.464184517304">
        <ele>1</ele>
        <time>2020-06-22T21:09:39Z</time>
      </trkpt>
      <trkpt lat="51.228880981572" lon="4.464239586387">
        <ele>1.2</ele>
        <time>2020-06-22T21:09:56Z</time>
      </trkpt>
      <trkpt lat="51.228790876147" lon="4.464227516451">
        <ele>0</ele>
        <time>2020-06-22T21:10:05Z</time>
      </trkpt>
      <trkpt lat="51.228745194792" lon="4.464263893897">
        <ele>0</ele>
        <time>2020-06-22T21:10:10Z</time>
      </trkpt>
      <trkpt lat="51.22862298669" lon="4.464726155682">
        <ele>0</ele>
        <time>2020-06-22T21:10:34Z</time>
      </trkpt>
      <trkpt lat="51.228663387448" lon="4.465095043101">
        <ele>0</ele>
        <time>2020-06-22T21:11:13Z</time>
      </trkpt>
      <trkpt lat="51.228690963899" lon="4.465159416093">
        <ele>0</ele>
        <time>2020-06-22T21:11:18Z</time>
      </trkpt>
      <trkpt lat="51.228706554233" lon="4.465411627464">
        <ele>0</ele>
        <time>2020-06-22T21:11:36Z</time>
      </trkpt>
      <trkpt lat="51.228654418815" lon="4.465698875177">
        <ele>0</ele>
        <time>2020-06-22T21:12:00Z</time>
      </trkpt>
      <trkpt lat="51.228456103061" lon="4.465940944449">
        <ele>1.4</ele>
        <time>2020-06-22T21:12:28Z</time>
      </trkpt>
      <trkpt lat="51.228143709648" lon="4.466225426135">
        <ele>5.6</ele>
        <time>2020-06-22T21:13:19Z</time>
      </trkpt>
      <trkpt lat="51.227917817443" lon="4.4662702693">
        <ele>5</ele>
        <time>2020-06-22T21:13:45Z</time>
      </trkpt>
      <trkpt lat="51.227815055349" lon="4.466281668684">
        <ele>0</ele>
        <time>2020-06-22T21:14:20Z</time>
      </trkpt>
      <trkpt lat="51.227822599059" lon="4.466436063282">
        <ele>0</ele>
        <time>2020-06-22T21:14:40Z</time>
      </trkpt>
      <trkpt lat="51.227737355136" lon="4.466477888963">
        <ele>0</ele>
        <time>2020-06-22T21:14:58Z</time>
      </trkpt>
      <trkpt lat="51.227697457292" lon="4.466452910901">
        <ele>0</ele>
        <time>2020-06-22T21:15:04Z</time>
      </trkpt>
      <trkpt lat="51.227462428816" lon="4.465892497067">
        <ele>4.2</ele>
        <time>2020-06-22T21:15:45Z</time>
      </trkpt>
      <trkpt lat="51.227382297852" lon="4.465614301806">
        <ele>9.4</ele>
        <time>2020-06-22T21:16:24Z</time>
      </trkpt>
      <trkpt lat="51.227348770252" lon="4.465286150421">
        <ele>4.4</ele>
        <time>2020-06-22T21:17:00Z</time>
      </trkpt>
      <trkpt lat="51.227278278473" lon="4.464570755256">
        <ele>0</ele>
        <time>2020-06-22T21:17:40Z</time>
      </trkpt>
      <trkpt lat="51.227252462221" lon="4.464401440876">
        <ele>0</ele>
        <time>2020-06-22T21:17:51Z</time>
      </trkpt>
      <trkpt lat="51.227158249665" lon="4.463825688165">
        <ele>4.4</ele>
        <time>2020-06-22T21:18:32Z</time>
      </trkpt>
      <trkpt lat="51.227082980203" lon="4.463551348578">
        <ele>3.4</ele>
        <time>2020-06-22T21:18:55Z</time>
      </trkpt>
      <trkpt lat="51.22706060053" lon="4.463107359335">
        <ele>1.4</ele>
        <time>2020-06-22T21:19:26Z</time>
      </trkpt>
      <trkpt lat="51.227068647154" lon="4.463002501766">
        <ele>0.4</ele>
        <time>2020-06-22T21:19:35Z</time>
      </trkpt>
      <trkpt lat="51.227054649381" lon="4.4629342731">
        <ele>1.2</ele>
        <time>2020-06-22T21:19:40Z</time>
      </trkpt>
      <trkpt lat="51.22705138044" lon="4.462887250641">
        <ele>2.4</ele>
        <time>2020-06-22T21:19:43Z</time>
      </trkpt>
      <trkpt lat="51.227024474541" lon="4.462743081961">
        <ele>6.4</ele>
        <time>2020-06-22T21:19:55Z</time>
      </trkpt>
      <trkpt lat="51.226905200104" lon="4.462046881347">
        <ele>8.4</ele>
        <time>2020-06-22T21:20:37Z</time>
      </trkpt>
      <trkpt lat="51.226891872883" lon="4.461791903949">
        <ele>15.4</ele>
        <time>2020-06-22T21:20:58Z</time>
      </trkpt>
      <trkpt lat="51.226909642511" lon="4.461776481253">
        <ele>15</ele>
        <time>2020-06-22T21:21:00Z</time>
      </trkpt>
      <trkpt lat="51.226964292499" lon="4.461650668934">
        <ele>12.4</ele>
        <time>2020-06-22T21:21:18Z</time>
      </trkpt>
      <trkpt lat="51.227228070892" lon="4.461313632735">
        <ele>4</ele>
        <time>2020-06-22T21:21:53Z</time>
      </trkpt>
      <trkpt lat="51.227313817729" lon="4.461093943136">
        <ele>0.4</ele>
        <time>2020-06-22T21:22:18Z</time>
      </trkpt>
      <trkpt lat="51.227610956084" lon="4.460671076281">
        <ele>5.2</ele>
        <time>2020-06-22T21:23:05Z</time>
      </trkpt>
      <trkpt lat="51.227663929692" lon="4.460655988861">
        <ele>6.8</ele>
        <time>2020-06-22T21:23:10Z</time>
      </trkpt>
      <trkpt lat="51.227968192662" lon="4.460481142427">
        <ele>8.6</ele>
        <time>2020-06-22T21:23:51Z</time>
      </trkpt>
      <trkpt lat="51.228117641939" lon="4.460457840745">
        <ele>9.6</ele>
        <time>2020-06-22T21:24:13Z</time>
      </trkpt>
      <trkpt lat="51.228312688752" lon="4.460145950246">
        <ele>7.2</ele>
        <time>2020-06-22T21:24:42Z</time>
      </trkpt>
      <trkpt lat="51.228336074253" lon="4.459834478842">
        <ele>0.6</ele>
        <time>2020-06-22T21:25:02Z</time>
      </trkpt>
      <trkpt lat="51.228485691168" lon="4.459157472779">
        <ele>2</ele>
        <time>2020-06-22T21:25:45Z</time>
      </trkpt>
      <trkpt lat="51.228505137176" lon="4.458951948591">
        <ele>2.6</ele>
        <time>2020-06-22T21:26:02Z</time>
      </trkpt>
      <trkpt lat="51.228517961483" lon="4.458297154563">
        <ele>0.2</ele>
        <time>2020-06-22T21:26:52Z</time>
      </trkpt>
      <trkpt lat="51.228952060084" lon="4.458112585125">
        <ele>0</ele>
        <time>2020-06-22T21:27:36Z</time>
      </trkpt>
      <trkpt lat="51.229254227579" lon="4.4580392435">
        <ele>2.8</ele>
        <time>2020-06-22T21:28:15Z</time>
      </trkpt>
      <trkpt lat="51.229367131772" lon="4.458047457762">
        <ele>4.8</ele>
        <time>2020-06-22T21:28:29Z</time>
      </trkpt>
      <trkpt lat="51.229523873302" lon="4.457995489982">
        <ele>6.4</ele>
        <time>2020-06-22T21:28:55Z</time>
      </trkpt>
      <trkpt lat="51.229675920968" lon="4.45791100043">
        <ele>4</ele>
        <time>2020-06-22T21:29:26Z</time>
      </trkpt>
    </trkseg>
  </trk>
</gpx>